Time;durP1;ratioP1;P1;durP2;ratioP2;P2;SDS_P1;SDS_P2;PMS_P1;PMS_P2;Temp;Humidity;BMP_temperature;BMP_pressure;BME280_temperature;BME280_humidity;BME280_pressure;Samples;Min_cycle;Max_cycle;Signal;HPM_P1;HPM_P2
2023/07/04 00:00:24;;;;;;;17.83;14.15;;;;;;;22.16;100.00;99868.91;5087792;28;20073;-19
2023/07/04 00:02:50;;;;;;;20.23;14.27;;;;;;;22.33;99.94;99869.16;5087162;28;20020;-18
2023/07/04 00:05:15;;;;;;;17.95;13.68;;;;;;;22.20;100.00;99865.28;5087368;28;20070;-18
2023/07/04 00:07:44;;;;;;;17.65;14.50;;;;;;;22.48;97.73;99876.19;5087234;28;20497;-20
2023/07/04 00:10:09;;;;;;;18.42;13.60;;;;;;;22.57;97.05;99879.78;5086661;28;20035;-18
2023/07/04 00:12:35;;;;;;;17.80;13.52;;;;;;;22.57;97.03;99879.78;5087300;28;20016;-18
2023/07/04 00:15:04;;;;;;;20.17;15.20;;;;;;;22.54;96.86;99880.41;5086868;28;20028;-18
2023/07/04 00:17:29;;;;;;;18.45;14.38;;;;;;;22.55;95.64;99883.91;5087047;28;20024;-22
2023/07/04 00:19:57;;;;;;;23.95;15.27;;;;;;;22.57;95.71;99878.97;5087127;28;20388;-20
2023/07/04 00:22:23;;;;;;;24.15;16.08;;;;;;;22.52;95.81;99876.38;5086861;28;20062;-18
2023/07/04 00:24:49;;;;;;;19.10;14.93;;;;;;;22.32;97.80;99880.31;5086686;28;20828;-19
2023/07/04 00:27:15;;;;;;;19.17;14.52;;;;;;;22.40;97.44;99872.25;5086403;28;20070;-19
2023/07/04 00:29:42;;;;;;;20.42;14.55;;;;;;;22.24;99.68;99876.38;5086941;28;20052;-18
2023/07/04 00:32:12;;;;;;;17.50;13.85;;;;;;;22.07;100.00;99861.44;5086720;28;20054;-17
2023/07/04 00:34:38;;;;;;;18.23;14.23;;;;;;;21.77;100.00;99870.16;5086300;28;20035;-19
2023/07/04 00:37:03;;;;;;;18.00;14.00;;;;;;;21.96;100.00;99872.78;5086574;28;20032;-18
2023/07/04 00:39:32;;;;;;;18.00;13.38;;;;;;;22.43;100.00;99862.69;5086735;28;20035;-18
2023/07/04 00:42:00;;;;;;;16.50;13.63;;;;;;;22.61;100.00;99879.97;5086584;28;20028;-19
2023/07/04 00:44:34;;;;;;;16.08;12.95;;;;;;;22.76;100.00;99881.56;5086591;28;20027;-18
2023/07/04 00:47:42;;;;;;;20.63;13.57;;;;;;;22.86;100.00;99873.19;5086587;28;20032;-18
2023/07/04 00:50:09;;;;;;;18.77;13.43;;;;;;;23.17;100.00;99880.69;5086233;28;20036;-17
2023/07/04 00:52:40;;;;;;;18.65;13.95;;;;;;;22.95;100.00;99881.44;5086368;28;20051;-19
2023/07/04 00:55:10;;;;;;;17.05;13.27;;;;;;;22.92;100.00;99865.72;5086204;28;20516;-19
2023/07/04 00:57:38;;;;;;;19.85;14.15;;;;;;;23.15;100.00;99889.19;5086300;28;20047;-19
2023/07/04 01:00:14;;;;;;;;;;;;;;;23.03;100.00;99886.19;5086614;28;20107;-18
2023/07/04 01:02:39;;;;;;;17.25;13.18;;;;;;;23.13;100.00;99887.84;5086182;28;20395;-18
2023/07/04 01:05:05;;;;;;;16.45;13.13;;;;;;;23.16;100.00;99890.78;5085886;28;20089;-18
2023/07/04 01:07:41;;;;;;;17.40;13.48;;;;;;;23.13;100.00;99883.25;5086212;28;20051;-24
2023/07/04 01:10:18;;;;;;;15.93;12.68;;;;;;;22.83;98.54;99871.91;5066563;28;20032;-19
2023/07/04 01:12:45;;;;;;;14.20;12.27;;;;;;;22.95;98.39;99881.44;5066056;28;20036;-19
2023/07/04 01:15:11;;;;;;;17.63;13.13;;;;;;;22.98;97.10;99883.53;5065535;28;20047;-18
2023/07/04 01:17:41;;;;;;;16.02;13.23;;;;;;;22.89;99.75;99875.31;5065295;28;20036;-18
2023/07/04 01:20:08;;;;;;;15.85;13.10;;;;;;;22.80;99.47;99885.28;5065738;28;20020;-20
2023/07/04 01:23:03;;;;;;;18.00;13.30;;;;;;;22.40;100.00;99885.84;5072742;28;20028;-18
2023/07/04 01:25:41;;;;;;;15.77;12.88;;;;;;;22.36;100.00;99890.25;5085703;28;20028;-18
2023/07/04 01:28:07;;;;;;;16.73;12.65;;;;;;;22.28;100.00;99888.25;5065211;28;20078;-20
2023/07/04 01:30:38;;;;;;;18.30;14.00;;;;;;;21.93;100.00;99886.97;5064440;28;20702;-18
2023/07/04 01:33:05;;;;;;;19.35;13.82;;;;;;;21.80;100.00;99902.13;5065508;28;20032;-20
2023/07/04 01:35:33;;;;;;;18.85;14.15;;;;;;;21.95;100.00;99904.56;5065377;28;20028;-22
2023/07/04 01:37:59;;;;;;;15.98;13.20;;;;;;;21.99;100.00;99891.22;5065584;28;20050;-19
2023/07/04 01:40:25;;;;;;;18.70;13.57;;;;;;;21.93;100.00;99892.41;5065087;28;20036;-18
2023/07/04 01:42:51;;;;;;;19.10;13.13;;;;;;;22.03;100.00;99901.16;5064790;28;20059;-17
2023/07/04 01:45:17;;;;;;;17.52;13.57;;;;;;;22.06;100.00;99891.59;5065157;28;20697;-18
2023/07/04 01:47:44;;;;;;;20.25;13.80;;;;;;;22.14;100.00;99904.50;5064829;28;20065;-18
2023/07/04 01:50:11;;;;;;;18.83;14.18;;;;;;;22.15;100.00;99906.13;5065095;28;20043;-19
2023/07/04 01:52:38;;;;;;;18.38;14.20;;;;;;;22.12;100.00;99906.72;5064979;28;20036;-19
2023/07/04 01:55:04;;;;;;;21.58;14.05;;;;;;;22.02;100.00;99899.53;5064923;28;20048;-18
2023/07/04 01:57:30;;;;;;;17.55;14.35;;;;;;;22.05;100.00;99911.75;5064846;28;20491;-18
2023/07/04 01:59:58;;;;;;;19.13;14.45;;;;;;;22.10;100.00;99889.91;5064402;28;20123;-18
2023/07/04 02:02:24;;;;;;;17.45;14.13;;;;;;;22.68;100.00;99910.28;5065087;28;20028;-19
2023/07/04 02:04:49;;;;;;;19.05;14.90;;;;;;;22.74;100.00;99917.22;5064930;28;20025;-19
2023/07/04 02:07:15;;;;;;;18.23;14.80;;;;;;;22.43;100.00;99908.88;5064838;28;20036;-19
2023/07/04 02:09:42;;;;;;;20.33;15.00;;;;;;;22.22;100.00;99906.50;5064849;28;20028;-19
2023/07/04 02:12:09;;;;;;;19.15;14.50;;;;;;;22.11;100.00;99907.00;5064601;28;20127;-18
2023/07/04 02:14:37;;;;;;;20.48;14.77;;;;;;;22.20;100.00;99906.00;5064912;28;20044;-20
2023/07/04 02:17:02;;;;;;;;;;;;;;;22.43;100.00;99895.28;5065311;28;20085;-24
2023/07/04 02:19:27;;;;;;;16.17;13.32;;;;;;;22.10;100.00;99908.13;5064841;28;19912;-18
2023/07/04 02:21:53;;;;;;;17.10;13.60;;;;;;;22.09;100.00;99912.75;5064763;28;20029;-18
2023/07/04 02:24:20;;;;;;;18.05;14.00;;;;;;;22.05;100.00;99915.25;5064631;28;20025;-19
2023/07/04 02:26:46;;;;;;;19.73;14.07;;;;;;;22.08;100.00;99911.94;5064756;28;20032;-18
2023/07/04 02:29:12;;;;;;;17.48;13.77;;;;;;;22.22;100.00;99913.88;5064444;28;20052;-18
2023/07/04 02:31:37;;;;;;;18.77;15.05;;;;;;;22.39;100.00;99905.97;5064776;28;20036;-18
2023/07/04 02:34:03;;;;;;;20.45;15.05;;;;;;;22.11;100.00;99890.69;5068009;28;20035;-18
2023/07/04 02:36:28;;;;;;;17.10;14.20;;;;;;;22.34;100.00;99918.84;5068353;28;20020;-18
2023/07/04 02:38:56;;;;;;;19.52;13.85;;;;;;;22.50;100.00;99917.44;5068633;28;20107;-19
2023/07/04 02:41:21;;;;;;;18.58;14.50;;;;;;;22.42;100.00;99921.66;5068195;28;20519;-19
2023/07/04 02:43:46;;;;;;;16.85;13.55;;;;;;;22.57;100.00;99925.19;5074776;28;20039;-18
2023/07/04 02:46:14;;;;;;;19.17;13.75;;;;;;;22.37;100.00;99929.09;5088909;28;20028;-18
2023/07/04 02:48:40;;;;;;;19.30;14.52;;;;;;;22.68;100.00;99929.31;5088787;28;20055;-18
2023/07/04 02:51:05;;;;;;;22.33;14.80;;;;;;;22.41;100.00;99930.94;5088691;28;20652;-19
2023/07/04 02:53:31;;;;;;;21.63;15.13;;;;;;;22.16;100.00;99928.66;5089067;28;20024;-17
2023/07/04 02:55:56;;;;;;;19.27;14.63;;;;;;;22.17;100.00;99920.22;5088473;28;20027;-18
2023/07/04 02:58:22;;;;;;;20.58;13.73;;;;;;;22.03;100.00;99909.31;5088631;28;20044;-18
2023/07/04 03:00:48;;;;;;;21.65;15.32;;;;;;;22.39;100.00;99916.00;5088196;28;20066;-19
2023/07/04 03:03:14;;;;;;;18.40;14.35;;;;;;;22.26;100.00;99912.19;5088172;28;20032;-17
2023/07/04 03:05:40;;;;;;;17.58;14.18;;;;;;;22.30;100.00;99918.63;5088791;28;20016;-19
2023/07/04 03:08:06;;;;;;;19.40;15.32;;;;;;;22.49;100.00;99915.03;5088122;28;20031;-18
2023/07/04 03:10:31;;;;;;;19.42;15.00;;;;;;;22.33;100.00;99923.47;5088942;28;20469;-19
2023/07/04 03:12:59;;;;;;;19.75;14.90;;;;;;;22.15;100.00;99916.97;5088337;28;20036;-18
2023/07/04 03:15:25;;;;;;;17.77;14.13;;;;;;;22.24;100.00;99908.97;5088177;28;20779;-18
2023/07/04 03:17:51;;;;;;;21.10;14.23;;;;;;;22.04;100.00;99916.34;5088232;28;20563;-19
2023/07/04 03:20:16;;;;;;;21.10;14.82;;;;;;;21.89;100.00;99919.34;5087377;28;20177;-20
2023/07/04 03:22:42;;;;;;;20.38;15.02;;;;;;;21.72;100.00;99892.75;5088346;28;20035;-18
2023/07/04 03:25:10;;;;;;;19.90;14.85;;;;;;;22.01;100.00;99911.53;5087626;28;20108;-18
2023/07/04 03:27:37;;;;;;;21.27;14.83;;;;;;;21.75;100.00;99902.22;5087831;28;20598;-24
2023/07/04 03:30:03;;;;;;;;;;;;;;;21.98;100.00;99911.31;5088413;28;20270;-19
2023/07/04 03:32:31;;;;;;;29.30;18.40;;;;;;;22.26;100.00;99917.63;5087811;28;19934;-17
2023/07/04 03:35:01;;;;;;;29.83;16.70;;;;;;;22.11;100.00;99917.84;5088009;28;20035;-17
2023/07/04 03:37:31;;;;;;;25.42;17.17;;;;;;;22.03;100.00;99920.19;5087240;28;20043;-19
2023/07/04 03:40:00;;;;;;;29.35;17.67;;;;;;;21.85;100.00;99921.03;5087799;28;20074;-18
2023/07/04 03:42:29;;;;;;;26.02;16.70;;;;;;;21.87;100.00;99922.34;5087543;28;20487;-18
2023/07/04 03:44:54;;;;;;;25.00;17.10;;;;;;;21.86;100.00;99914.50;5086751;28;20165;-18
2023/07/04 03:47:20;;;;;;;22.38;15.93;;;;;;;21.97;100.00;99918.66;5086656;28;20040;-20
2023/07/04 03:49:47;;;;;;;22.50;15.75;;;;;;;22.13;100.00;99918.38;5087575;28;20418;-18
2023/07/04 03:52:17;;;;;;;;;;;;;;;22.02;100.00;99934.84;5087894;28;20082;-18
2023/07/04 03:54:46;;;;;;;22.40;15.65;;;;;;;22.03;100.00;99925.59;5087605;28;20700;-18
2023/07/04 03:57:14;;;;;;;21.65;16.52;;;;;;;22.11;100.00;99926.00;5086993;28;20035;-18
2023/07/04 03:59:42;;;;;;;20.00;16.25;;;;;;;22.11;100.00;99924.13;5087496;28;20051;-20
2023/07/04 04:02:08;;;;;;;22.08;16.10;;;;;;;21.97;100.00;99932.22;5087333;28;20039;-18
2023/07/04 04:04:39;;;;;;;22.20;17.02;;;;;;;21.99;100.00;99929.22;5087354;28;20081;-18
2023/07/04 04:07:14;;;;;;;22.80;17.15;;;;;;;21.93;100.00;99930.41;5087454;28;20040;-18
2023/07/04 04:09:40;;;;;;;22.75;16.88;;;;;;;22.16;100.00;99942.22;5087245;28;20027;-17
2023/07/04 04:12:07;;;;;;;21.27;17.33;;;;;;;22.32;100.00;99943.59;5087008;28;20035;-22
2023/07/04 04:14:36;;;;;;;20.25;16.75;;;;;;;22.13;100.00;99940.91;5087443;28;20036;-17
2023/07/04 04:17:02;;;;;;;24.60;17.92;;;;;;;22.39;100.00;99949.44;5087245;28;20153;-19
2023/07/04 04:19:28;;;;;;;24.52;18.73;;;;;;;22.26;100.00;99950.22;5087225;28;20044;-19
2023/07/04 04:21:54;;;;;;;22.75;19.00;;;;;;;22.14;100.00;99941.72;5086860;28;20035;-18
2023/07/04 04:24:21;;;;;;;25.27;19.98;;;;;;;22.04;100.00;99926.41;5086885;28;20066;-18
2023/07/04 04:26:49;;;;;;;26.95;19.92;;;;;;;22.07;100.00;99952.97;5086932;28;20056;-18
2023/07/04 04:29:17;;;;;;;23.38;19.25;;;;;;;22.00;100.00;99957.97;5086617;28;20024;-19
2023/07/04 04:31:44;;;;;;;25.15;20.13;;;;;;;21.96;100.00;99946.09;5086987;28;20031;-18
2023/07/04 04:34:12;;;;;;;23.50;19.17;;;;;;;22.31;100.00;99960.19;5086653;28;20035;-19
2023/07/04 04:36:39;;;;;;;;;;;;;;;22.18;100.00;99962.53;5085011;28;20111;-18
2023/07/04 04:39:05;;;;;;;19.10;15.88;;;;;;;22.30;100.00;99956.66;5073704;28;19912;-19
2023/07/04 04:41:31;;;;;;;21.27;15.65;;;;;;;22.58;100.00;99954.78;5086403;28;20047;-19
2023/07/04 04:44:07;;;;;;;20.55;15.75;;;;;;;22.46;100.00;99958.00;5086801;28;20024;-20
2023/07/04 04:46:33;;;;;;;18.77;15.52;;;;;;;22.46;100.00;99955.28;5086696;28;20375;-18
2023/07/04 04:49:02;;;;;;;19.92;15.85;;;;;;;22.51;100.00;99962.50;5086314;28;20432;-18
2023/07/04 04:51:31;;;;;;;20.00;15.63;;;;;;;22.57;100.00;99960.50;5085039;28;20543;-18
2023/07/04 04:53:57;;;;;;;20.45;15.98;;;;;;;22.57;100.00;99965.94;5086438;28;20027;-18
2023/07/04 04:56:23;;;;;;;19.92;15.48;;;;;;;22.72;100.00;99949.34;5085059;28;20020;-19
2023/07/04 04:58:48;;;;;;;19.60;15.38;;;;;;;22.77;100.00;99960.09;5086487;28;22295;-19
2023/07/04 05:01:15;;;;;;;19.50;15.32;;;;;;;23.24;97.89;99974.38;5086341;28;20026;-18
2023/07/04 05:03:45;;;;;;;19.40;15.50;;;;;;;22.97;98.30;99958.88;5086241;28;20089;-18
2023/07/04 05:06:11;;;;;;;17.23;14.45;;;;;;;23.22;97.00;99975.78;5086156;28;20566;-18
2023/07/04 05:08:37;;;;;;;17.05;14.32;;;;;;;23.34;96.18;99978.00;5086341;28;20058;-21
2023/07/04 05:11:08;;;;;;;18.63;15.38;;;;;;;23.35;97.02;99979.59;5085718;28;20023;-19
2023/07/04 05:13:36;;;;;;;17.50;14.90;;;;;;;23.40;96.61;99980.28;5086065;28;20067;-19
2023/07/04 05:16:09;;;;;;;18.38;15.00;;;;;;;23.17;97.71;99968.56;5085860;28;20138;-18
2023/07/04 05:18:45;;;;;;;18.50;14.93;;;;;;;23.42;96.85;99982.72;5086147;28;20058;-18
2023/07/04 05:21:16;;;;;;;17.10;14.50;;;;;;;23.72;95.55;99972.22;5084468;28;20389;-20
2023/07/04 05:23:43;;;;;;;18.00;14.43;;;;;;;23.95;91.59;99976.59;5085720;28;20062;-18
2023/07/04 05:26:24;;;;;;;16.55;14.27;;;;;;;24.10;90.58;99977.31;5085283;28;20099;-19
2023/07/04 05:28:53;;;;;;;20.67;14.50;;;;;;;24.15;89.94;99988.06;5085868;28;20042;-19
2023/07/04 05:31:22;;;;;;;17.70;13.98;;;;;;;24.24;89.49;99986.19;5085737;28;20047;-17
2023/07/04 05:33:48;;;;;;;18.00;13.73;;;;;;;24.58;85.69;99992.94;5085847;28;20021;-18
2023/07/04 05:36:19;;;;;;;18.20;13.65;;;;;;;24.61;84.72;99981.44;5085238;28;20035;-19
2023/07/04 05:38:55;;;;;;;21.98;16.05;;;;;;;24.73;87.44;99989.81;5085609;28;20124;-18
2023/07/04 05:41:30;;;;;;;18.50;14.13;;;;;;;24.74;85.68;99969.59;5085607;28;20073;-19
2023/07/04 05:43:58;;;;;;;16.13;12.65;;;;;;;24.95;83.23;99990.84;5085576;28;20077;-19
2023/07/04 05:46:24;;;;;;;17.45;12.32;;;;;;;24.88;81.65;99990.50;5085549;28;20028;-18
2023/07/04 05:48:49;;;;;;;16.77;12.38;;;;;;;24.96;82.47;99987.00;5085124;28;20055;-18
2023/07/04 05:51:17;;;;;;;14.23;11.98;;;;;;;25.03;82.60;99987.34;5085224;28;20067;-18
2023/07/04 05:53:46;;;;;;;15.32;13.15;;;;;;;25.40;80.80;99985.19;5085291;28;20035;-18
2023/07/04 05:56:14;;;;;;;15.75;13.15;;;;;;;25.53;79.23;99995.13;5085443;28;20139;-19
2023/07/04 05:58:44;;;;;;;17.95;12.40;;;;;;;25.62;79.24;99993.22;5085294;28;20097;-19
2023/07/04 06:01:25;;;;;;;16.52;12.27;;;;;;;25.62;76.24;99986.94;5085446;28;20032;-18
2023/07/04 06:03:52;;;;;;;14.90;12.52;;;;;;;25.72;77.75;99991.28;5085229;28;20035;-18
2023/07/04 06:06:24;;;;;;;16.02;12.90;;;;;;;25.65;77.07;99991.75;5084771;28;20023;-17
2023/07/04 06:08:56;;;;;;;16.65;13.18;;;;;;;25.89;75.76;99988.53;5084410;28;20040;-18
2023/07/04 06:11:24;;;;;;;17.17;12.70;;;;;;;26.02;77.51;99987.56;5084192;28;20032;-18
2023/07/04 06:13:50;;;;;;;17.20;13.38;;;;;;;26.04;76.66;99990.78;5084614;28;20505;-18
2023/07/04 06:16:15;;;;;;;16.80;12.52;;;;;;;26.17;75.23;99979.97;5084920;28;20038;-18
2023/07/04 06:18:43;;;;;;;17.45;12.60;;;;;;;26.35;75.61;99987.00;5081864;28;20020;-19
2023/07/04 06:21:24;;;;;;;;;;;;;;;26.49;73.71;99980.53;5085493;28;20388;-18
2023/07/04 06:23:58;;;;;;;14.05;11.30;;;;;;;26.52;72.81;99979.84;5082800;28;19911;-19
2023/07/04 06:26:27;;;;;;;15.80;12.68;;;;;;;26.65;72.27;99973.41;5083956;28;20043;-21
2023/07/04 06:28:57;;;;;;;15.52;11.35;;;;;;;26.75;72.86;99970.31;5084226;28;20039;-18
2023/07/04 06:31:25;;;;;;;14.13;11.32;;;;;;;26.83;68.80;99954.97;5084279;28;20113;-18
2023/07/04 06:34:00;;;;;;;17.27;11.68;;;;;;;26.84;70.87;99959.31;5081631;28;20111;-18
2023/07/04 06:36:48;;;;;;;19.27;11.07;;;;;;;26.81;71.52;99960.78;5084163;28;20024;-19
2023/07/04 06:39:13;;;;;;;17.15;11.85;;;;;;;27.11;69.51;99971.69;5079038;28;20431;-19
2023/07/04 06:41:38;;;;;;;15.27;11.13;;;;;;;27.16;68.05;99971.50;5082578;28;20035;-19
2023/07/04 06:44:07;;;;;;;14.77;10.90;;;;;;;27.25;66.84;99972.25;5078809;28;20032;-20
2023/07/04 06:46:35;;;;;;;13.43;10.70;;;;;;;27.15;69.85;99964.41;5080040;28;20040;-18
2023/07/04 06:49:02;;;;;;;;;;;;;;;27.39;67.51;99957.50;5083162;28;20070;-19
2023/07/04 06:51:30;;;;;;;13.40;10.43;;;;;;;27.48;68.40;99962.91;5080973;28;19912;-18
2023/07/04 06:54:07;;;;;;;17.17;10.70;;;;;;;27.67;67.57;99963.22;5071535;28;20048;-19
2023/07/04 06:56:32;;;;;;;12.50;10.20;;;;;;;27.90;64.94;99939.00;5063475;28;20031;-18
2023/07/04 06:59:00;;;;;;;12.25;10.15;;;;;;;27.93;64.13;99960.28;5081330;28;20020;-18
2023/07/04 07:01:29;;;;;;;12.60;9.35;;;;;;;27.94;61.84;99967.34;5083674;28;20023;-18
2023/07/04 07:03:55;;;;;;;13.15;10.18;;;;;;;27.81;64.97;99954.72;5082556;28;20458;-18
2023/07/04 07:06:21;;;;;;;13.40;9.73;;;;;;;27.79;62.32;99959.75;5083816;28;20020;-18
2023/07/04 07:08:49;;;;;;;12.85;9.85;;;;;;;27.80;62.30;99955.84;5083280;28;20070;-21
2023/07/04 07:11:21;;;;;;;12.13;10.48;;;;;;;28.09;64.46;99951.38;5083952;28;20550;-18
2023/07/04 07:13:49;;;;;;;12.50;10.05;;;;;;;28.31;61.17;99953.72;5084383;28;20024;-18
2023/07/04 07:16:16;;;;;;;12.27;9.65;;;;;;;28.25;59.46;99949.59;5083832;28;20030;-18
2023/07/04 07:18:43;;;;;;;13.63;10.43;;;;;;;28.40;61.16;99940.72;5084357;28;20027;-24
2023/07/04 07:21:11;;;;;;;12.13;10.02;;;;;;;28.23;59.50;99947.19;5087320;28;20032;-18
2023/07/04 07:23:37;;;;;;;12.60;9.57;;;;;;;28.40;60.64;99957.16;5087032;28;20032;-18
2023/07/04 07:26:06;;;;;;;12.25;9.50;;;;;;;28.61;56.00;99946.09;5086731;28;20036;-19
2023/07/04 07:28:33;;;;;;;13.73;10.02;;;;;;;28.78;57.54;99956.03;5087266;28;20116;-19
2023/07/04 07:31:11;;;;;;;12.02;9.57;;;;;;;29.23;54.99;99965.25;5087102;28;20598;-18
2023/07/04 07:33:40;;;;;;;12.90;10.13;;;;;;;29.27;51.59;99952.44;5086999;28;20036;-18
2023/07/04 07:36:15;;;;;;;14.77;9.45;;;;;;;29.42;53.89;99951.72;5087119;28;20106;-18
2023/07/04 07:38:44;;;;;;;11.77;9.40;;;;;;;29.51;51.91;99959.00;5087124;28;20073;-15
2023/07/04 07:41:10;;;;;;;11.52;9.98;;;;;;;29.68;53.84;99957.91;5086948;28;20028;-16
2023/07/04 07:43:38;;;;;;;12.05;8.90;;;;;;;29.69;52.79;99952.06;5086851;28;20562;-16
2023/07/04 07:46:13;;;;;;;11.35;9.27;;;;;;;29.77;55.16;99955.81;5086537;28;20056;-15
2023/07/04 07:48:38;;;;;;;13.73;10.57;;;;;;;29.76;52.89;99957.78;5087211;28;20024;-16
2023/07/04 07:51:08;;;;;;;14.13;10.18;;;;;;;29.85;56.67;99952.09;5086910;28;20389;-16
2023/07/04 07:53:35;;;;;;;15.10;9.98;;;;;;;29.77;54.03;99939.31;5083578;28;20031;-18
2023/07/04 07:56:01;;;;;;;12.25;9.60;;;;;;;30.12;55.86;99960.66;5083803;28;20017;-18
2023/07/04 07:58:26;;;;;;;16.77;10.63;;;;;;;30.06;53.11;99962.88;5086351;28;20036;-19
2023/07/04 08:00:51;;;;;;;15.73;9.73;;;;;;;30.09;53.03;99958.63;5083820;28;20045;-18
2023/07/04 08:03:17;;;;;;;13.30;9.23;;;;;;;30.26;53.07;99958.28;5086487;28;20023;-18
2023/07/04 08:05:45;;;;;;;12.07;8.75;;;;;;;30.30;50.57;99956.47;5086076;28;20440;-17
2023/07/04 08:08:11;;;;;;;11.27;9.23;;;;;;;30.50;51.65;99959.28;5086421;28;20024;-18
2023/07/04 08:10:38;;;;;;;12.00;8.82;;;;;;;30.41;48.90;99963.03;5086123;28;20028;-19
2023/07/04 08:13:12;;;;;;;12.63;8.88;;;;;;;30.75;49.43;99955.19;5086373;28;20556;-18
2023/07/04 08:15:45;;;;;;;14.40;9.25;;;;;;;30.83;49.86;99964.38;5084014;28;20157;-18
2023/07/04 08:18:10;;;;;;;12.00;9.55;;;;;;;31.09;48.09;99950.03;5086359;28;20024;-18
2023/07/04 08:20:38;;;;;;;10.88;8.70;;;;;;;31.31;49.94;99950.50;5086483;28;20031;-18
2023/07/04 08:23:06;;;;;;;13.50;8.77;;;;;;;31.21;49.73;99949.91;5086399;28;20024;-18
2023/07/04 08:25:37;;;;;;;10.85;8.68;;;;;;;31.17;48.71;99954.56;5085741;28;20025;-20
2023/07/04 08:28:05;;;;;;;11.88;8.82;;;;;;;31.06;48.50;99945.28;5080728;28;20083;-18
2023/07/04 08:30:40;;;;;;;12.32;8.48;;;;;;;31.19;51.85;99952.22;5085891;28;20031;-18
2023/07/04 08:33:08;;;;;;;11.88;8.55;;;;;;;31.36;46.12;99950.22;5086249;28;20035;-19
2023/07/04 08:35:39;;;;;;;13.82;8.90;;;;;;;31.39;49.70;99947.53;5074785;28;20038;-19
2023/07/04 08:38:07;;;;;;;10.15;7.90;;;;;;;31.47;46.56;99951.28;5086081;28;20035;-18
2023/07/04 08:40:46;;;;;;;9.65;7.63;;;;;;;31.61;45.03;99935.00;5086011;28;20508;-18
2023/07/04 08:43:12;;;;;;;11.13;8.40;;;;;;;31.36;46.32;99958.47;5086292;28;20109;-18
2023/07/04 08:45:38;;;;;;;10.00;8.23;;;;;;;31.18;48.74;99950.66;5086043;28;20081;-18
2023/07/04 08:48:04;;;;;;;12.10;8.30;;;;;;;31.51;45.07;99952.13;5085764;28;20035;-18
2023/07/04 08:50:33;;;;;;;9.55;7.55;;;;;;;31.71;47.36;99946.59;5085808;28;20020;-18
2023/07/04 08:53:16;;;;;;;11.77;8.13;;;;;;;31.94;43.60;99944.69;5083384;28;20028;-19
2023/07/04 08:56:05;;;;;;;11.23;8.50;;;;;;;31.94;44.37;99946.66;5085126;28;20028;-17
2023/07/04 08:58:38;;;;;;;10.35;8.13;;;;;;;31.77;44.37;99943.19;5072338;28;20032;-18
2023/07/04 09:01:13;;;;;;;9.63;8.13;;;;;;;31.98;46.29;99929.00;5085828;28;20028;-19
2023/07/04 09:03:50;;;;;;;11.10;8.35;;;;;;;32.44;46.06;99934.50;5085779;28;20028;-18
2023/07/04 09:06:41;;;;;;;11.82;8.73;;;;;;;32.51;42.12;99920.03;5085660;28;20028;-24
2023/07/04 09:09:29;;;;;;;10.77;7.88;;;;;;;32.91;40.28;99921.41;5085325;28;20435;-18
2023/07/04 09:11:55;;;;;;;10.45;8.60;;;;;;;33.21;40.71;99932.50;5085648;28;20065;-18
2023/07/04 09:14:39;;;;;;;11.13;8.27;;;;;;;33.10;42.22;99928.00;5085399;28;20116;-18
2023/07/04 09:17:16;;;;;;;10.10;8.20;;;;;;;32.89;40.43;99920.19;5085169;28;20027;-19
2023/07/04 09:19:48;;;;;;;10.63;7.38;;;;;;;33.12;37.84;99937.53;5085183;28;20515;-18
2023/07/04 09:22:14;;;;;;;9.32;7.63;;;;;;;33.31;38.20;99933.78;5085620;28;20092;-18
2023/07/04 09:24:39;;;;;;;9.10;8.00;;;;;;;32.91;37.95;99937.19;5082754;28;20044;-18
2023/07/04 09:27:06;;;;;;;12.82;7.93;;;;;;;33.03;37.01;99940.50;5085068;28;20379;-20
2023/07/04 09:29:31;;;;;;;9.27;7.40;;;;;;;33.20;39.68;99930.09;5085135;28;20074;-19
2023/07/04 09:32:00;;;;;;;8.85;7.32;;;;;;;33.06;39.36;99921.59;5085098;28;20093;-18
2023/07/04 09:34:36;;;;;;;10.73;7.60;;;;;;;33.39;39.41;99923.63;5085120;28;20076;-19
2023/07/04 09:37:13;;;;;;;11.82;8.25;;;;;;;33.30;37.95;99925.88;5085314;28;20056;-18
2023/07/04 09:39:59;;;;;;;;;;;;;;;33.27;39.67;99932.16;5085885;28;20040;-18
2023/07/04 09:42:41;;;;;;;10.18;7.72;;;;;;;33.47;40.90;99925.31;5083763;28;20308;-18
2023/07/04 09:45:13;;;;;;;9.50;8.00;;;;;;;33.20;39.69;99921.81;5084782;28;20025;-19
2023/07/04 09:47:44;;;;;;;9.02;7.50;;;;;;;33.15;38.05;99920.19;5084969;28;20560;-17
2023/07/04 09:50:23;;;;;;;11.68;7.90;;;;;;;33.49;39.98;99933.19;5084749;28;20508;-19
2023/07/04 09:53:09;;;;;;;10.52;7.90;;;;;;;33.61;40.25;99925.50;5085184;28;20027;-20
2023/07/04 09:55:37;;;;;;;9.82;7.13;;;;;;;33.74;37.75;99930.75;5084909;28;20032;-18
2023/07/04 09:58:23;;;;;;;9.85;8.25;;;;;;;33.65;37.72;99933.00;5084668;28;20107;-17
2023/07/04 10:01:12;;;;;;;8.50;7.60;;;;;;;33.72;36.69;99942.19;5084582;28;20660;-18
2023/07/04 10:03:41;;;;;;;12.57;8.15;;;;;;;33.48;37.94;99935.16;5084254;28;20036;-18
2023/07/04 10:06:09;;;;;;;11.55;8.00;;;;;;;33.65;38.18;99931.03;5084521;28;20081;-18
2023/07/04 10:08:55;;;;;;;9.45;6.85;;;;;;;33.97;36.11;99933.34;5084713;28;20676;-18
2023/07/04 10:11:25;;;;;;;9.43;7.10;;;;;;;34.04;34.63;99914.03;5084833;28;20024;-18
2023/07/04 10:14:09;;;;;;;9.15;7.20;;;;;;;34.29;34.99;99924.56;5082074;28;20032;-19
2023/07/04 10:16:35;;;;;;;8.98;6.50;;;;;;;34.33;32.94;99930.91;5064504;28;20036;-18
2023/07/04 10:19:09;;;;;;;8.63;6.60;;;;;;;34.08;32.77;99925.13;5073669;28;20020;-19
2023/07/04 10:21:48;;;;;;;10.70;7.68;;;;;;;34.16;34.43;99899.94;5084315;28;20024;-18
2023/07/04 10:24:25;;;;;;;10.05;6.93;;;;;;;34.46;33.98;99914.78;5084440;28;20032;-18
2023/07/04 10:26:57;;;;;;;12.30;7.72;;;;;;;34.70;36.41;99902.31;5083997;28;20078;-18
2023/07/04 10:29:39;;;;;;;8.88;7.00;;;;;;;34.14;34.18;99895.94;5084258;28;20429;-21
2023/07/04 10:32:13;;;;;;;8.15;6.88;;;;;;;33.86;35.07;99908.34;5084097;28;20054;-19
2023/07/04 10:34:40;;;;;;;8.75;7.15;;;;;;;34.30;34.30;99896.47;5084009;28;20032;-19
2023/07/04 10:37:07;;;;;;;9.43;7.57;;;;;;;34.50;33.17;99880.41;5083906;28;20059;-18
2023/07/04 10:39:37;;;;;;;7.78;6.75;;;;;;;34.47;33.02;99888.69;5083501;28;20055;-18
2023/07/04 10:42:15;;;;;;;17.75;10.60;;;;;;;34.59;33.86;99882.81;5083677;28;20028;-18
2023/07/04 10:44:42;;;;;;;12.65;8.82;;;;;;;34.76;34.31;99886.91;5080735;28;20046;-18
2023/07/04 10:47:25;;;;;;;9.13;7.35;;;;;;;34.79;34.89;99878.59;5083927;28;20032;-18
2023/07/04 10:50:02;;;;;;;10.00;7.18;;;;;;;35.03;33.62;99881.88;5083451;28;20039;-18
2023/07/04 10:52:36;;;;;;;23.98;13.07;;;;;;;35.04;35.21;99860.50;5084019;28;20028;-19
2023/07/04 10:55:10;;;;;;;8.27;7.22;;;;;;;35.14;33.08;99879.94;5087159;28;20032;-18
2023/07/04 10:57:47;;;;;;;8.13;6.40;;;;;;;35.01;32.56;99870.41;5087936;28;20079;-22
2023/07/04 11:00:31;;;;;;;;;;;;;;;34.88;33.41;99872.72;5088754;28;20043;-20
2023/07/04 11:03:41;;;;;;;8.82;7.00;;;;;;;35.24;33.10;99866.56;5087867;28;19912;-18
2023/07/04 11:06:14;;;;;;;8.73;6.85;;;;;;;35.04;32.39;99864.06;4985485;28;20173;-19
2023/07/04 11:08:41;;;;;;;10.45;6.65;;;;;;;35.30;31.09;99854.69;4985355;28;20565;-18
2023/07/04 11:11:09;;;;;;;9.98;7.05;;;;;;;35.75;31.49;99852.41;5042630;28;20036;-19
2023/07/04 11:13:40;;;;;;;9.05;6.63;;;;;;;36.12;31.64;99842.88;5087467;28;20051;-18
2023/07/04 11:16:07;;;;;;;8.10;6.65;;;;;;;36.22;32.13;99852.41;5085365;28;20024;-19
2023/07/04 11:18:38;;;;;;;8.50;6.68;;;;;;;36.42;31.52;99840.88;5087124;28;20035;-18
2023/07/04 11:21:12;;;;;;;9.57;6.40;;;;;;;36.44;31.74;99830.94;5087346;28;20023;-18
2023/07/04 11:24:08;;;;;;;9.43;7.85;;;;;;;36.78;31.42;99839.59;5083435;28;20090;-18
2023/07/04 11:27:04;;;;;;;10.75;6.85;;;;;;;35.87;31.45;99829.03;5081567;28;20169;-18
2023/07/04 11:29:47;;;;;;;9.32;6.80;;;;;;;35.92;30.82;99831.41;5087149;28;20031;-18
2023/07/04 11:32:40;;;;;;;8.90;6.93;;;;;;;36.11;31.08;99834.97;5087480;28;20564;-18